sensor_id;sensor_type;location;lat;lon;timestamp;P1;durP1;ratioP1;P2;durP2;ratioP2
41817;SDS011;27493;51.730;5.294;2023-02-22T00:00:36;41.93;;;18.90;;
41817;SDS011;27493;51.730;5.294;2023-02-22T00:03:08;40.07;;;17.87;;
41817;SDS011;27493;51.730;5.294;2023-02-22T00:05:34;38.53;;;18.60;;
41817;SDS011;27493;51.730;5.294;2023-02-22T00:07:59;43.23;;;20.13;;
41817;SDS011;27493;51.730;5.294;2023-02-22T00:10:25;42.53;;;18.87;;
41817;SDS011;27493;51.730;5.294;2023-02-22T00:12:51;40.53;;;18.33;;
41817;SDS011;27493;51.730;5.294;2023-02-22T00:15:17;40.40;;;18.47;;
41817;SDS011;27493;51.730;5.294;2023-02-22T00:17:42;40.17;;;18.77;;
41817;SDS011;27493;51.730;5.294;2023-02-22T00:20:08;39.43;;;17.80;;
41817;SDS011;27493;51.730;5.294;2023-02-22T00:22:43;43.70;;;19.80;;
41817;SDS011;27493;51.730;5.294;2023-02-22T00:25:10;42.40;;;19.07;;
41817;SDS011;27493;51.730;5.294;2023-02-22T00:27:36;38.77;;;18.83;;
41817;SDS011;27493;51.730;5.294;2023-02-22T00:30:02;43.37;;;18.67;;
41817;SDS011;27493;51.730;5.294;2023-02-22T00:32:27;41.90;;;19.63;;
41817;SDS011;27493;51.730;5.294;2023-02-22T00:34:53;41.60;;;18.23;;
41817;SDS011;27493;51.730;5.294;2023-02-22T00:37:18;40.63;;;17.83;;
41817;SDS011;27493;51.730;5.294;2023-02-22T00:39:45;42.97;;;19.97;;
41817;SDS011;27493;51.730;5.294;2023-02-22T00:42:11;42.93;;;19.77;;
41817;SDS011;27493;51.730;5.294;2023-02-22T00:44:36;42.13;;;19.63;;
41817;SDS011;27493;51.730;5.294;2023-02-22T00:47:01;43.90;;;19.03;;
41817;SDS011;27493;51.730;5.294;2023-02-22T00:49:28;47.37;;;19.17;;
41817;SDS011;27493;51.730;5.294;2023-02-22T00:51:54;46.77;;;20.47;;
41817;SDS011;27493;51.730;5.294;2023-02-22T00:54:19;43.47;;;19.43;;
41817;SDS011;27493;51.730;5.294;2023-02-22T00:56:44;41.97;;;19.90;;
41817;SDS011;27493;51.730;5.294;2023-02-22T00:59:09;43.40;;;19.43;;
41817;SDS011;27493;51.730;5.294;2023-02-22T01:01:35;49.13;;;20.27;;
41817;SDS011;27493;51.730;5.294;2023-02-22T01:04:00;41.63;;;18.63;;
41817;SDS011;27493;51.730;5.294;2023-02-22T01:06:25;42.93;;;19.70;;
41817;SDS011;27493;51.730;5.294;2023-02-22T01:08:50;42.07;;;19.40;;
41817;SDS011;27493;51.730;5.294;2023-02-22T01:11:16;41.93;;;19.37;;
41817;SDS011;27493;51.730;5.294;2023-02-22T01:13:41;40.47;;;20.07;;
41817;SDS011;27493;51.730;5.294;2023-02-22T01:16:09;41.83;;;18.50;;
41817;SDS011;27493;51.730;5.294;2023-02-22T01:18:34;42.73;;;19.73;;
41817;SDS011;27493;51.730;5.294;2023-02-22T01:21:00;42.07;;;19.17;;
41817;SDS011;27493;51.730;5.294;2023-02-22T01:23:25;44.47;;;20.10;;
41817;SDS011;27493;51.730;5.294;2023-02-22T01:25:51;41.47;;;19.30;;
41817;SDS011;27493;51.730;5.294;2023-02-22T01:28:16;43.33;;;20.30;;
41817;SDS011;27493;51.730;5.294;2023-02-22T01:30:41;43.03;;;19.73;;
41817;SDS011;27493;51.730;5.294;2023-02-22T01:33:06;41.23;;;19.80;;
41817;SDS011;27493;51.730;5.294;2023-02-22T01:35:33;38.87;;;18.33;;
41817;SDS011;27493;51.730;5.294;2023-02-22T01:37:59;41.27;;;19.10;;
41817;SDS011;27493;51.730;5.294;2023-02-22T01:40:25;41.57;;;18.97;;
41817;SDS011;27493;51.730;5.294;2023-02-22T01:42:51;39.33;;;19.47;;
41817;SDS011;27493;51.730;5.294;2023-02-22T01:48:05;40.13;;;18.70;;
41817;SDS011;27493;51.730;5.294;2023-02-22T01:50:34;44.27;;;19.40;;
41817;SDS011;27493;51.730;5.294;2023-02-22T01:53:02;43.40;;;19.63;;
41817;SDS011;27493;51.730;5.294;2023-02-22T01:55:28;38.33;;;19.20;;
41817;SDS011;27493;51.730;5.294;2023-02-22T01:57:53;44.90;;;18.67;;
41817;SDS011;27493;51.730;5.294;2023-02-22T02:00:19;39.33;;;19.43;;
41817;SDS011;27493;51.730;5.294;2023-02-22T02:02:47;44.30;;;20.27;;
41817;SDS011;27493;51.730;5.294;2023-02-22T02:05:13;42.13;;;20.07;;
41817;SDS011;27493;51.730;5.294;2023-02-22T02:07:38;43.07;;;19.47;;
41817;SDS011;27493;51.730;5.294;2023-02-22T02:10:08;42.93;;;20.83;;
41817;SDS011;27493;51.730;5.294;2023-02-22T02:12:38;41.80;;;19.67;;
41817;SDS011;27493;51.730;5.294;2023-02-22T02:15:15;42.53;;;20.10;;
41817;SDS011;27493;51.730;5.294;2023-02-22T02:17:40;44.23;;;20.07;;
41817;SDS011;27493;51.730;5.294;2023-02-22T02:20:09;50.43;;;21.10;;
41817;SDS011;27493;51.730;5.294;2023-02-22T02:41:34;45.93;;;20.07;;
41817;SDS011;27493;51.730;5.294;2023-02-22T02:46:25;45.78;;;20.75;;
41817;SDS011;27493;51.730;5.294;2023-02-22T02:48:59;47.77;;;20.33;;
41817;SDS011;27493;51.730;5.294;2023-02-22T02:51:29;49.77;;;21.67;;
41817;SDS011;27493;51.730;5.294;2023-02-22T02:53:56;48.37;;;21.47;;
41817;SDS011;27493;51.730;5.294;2023-02-22T02:56:22;47.80;;;21.20;;
41817;SDS011;27493;51.730;5.294;2023-02-22T02:58:51;48.63;;;21.57;;
41817;SDS011;27493;51.730;5.294;2023-02-22T03:01:24;50.33;;;21.47;;
41817;SDS011;27493;51.730;5.294;2023-02-22T03:07:07;53.20;;;21.63;;
41817;SDS011;27493;51.730;5.294;2023-02-22T03:09:40;52.93;;;23.10;;
41817;SDS011;27493;51.730;5.294;2023-02-22T03:12:21;50.97;;;23.23;;
41817;SDS011;27493;51.730;5.294;2023-02-22T03:17:25;53.17;;;22.60;;
41817;SDS011;27493;51.730;5.294;2023-02-22T03:20:01;53.97;;;23.40;;
41817;SDS011;27493;51.730;5.294;2023-02-22T03:22:39;55.63;;;23.17;;
41817;SDS011;27493;51.730;5.294;2023-02-22T03:25:09;58.77;;;23.37;;
41817;SDS011;27493;51.730;5.294;2023-02-22T03:27:37;57.00;;;23.80;;
41817;SDS011;27493;51.730;5.294;2023-02-22T03:30:17;54.93;;;21.97;;
41817;SDS011;27493;51.730;5.294;2023-02-22T03:32:45;55.83;;;22.20;;
41817;SDS011;27493;51.730;5.294;2023-02-22T03:35:21;55.57;;;22.73;;
41817;SDS011;27493;51.730;5.294;2023-02-22T03:37:48;60.13;;;23.33;;
41817;SDS011;27493;51.730;5.294;2023-02-22T03:40:15;59.13;;;23.00;;
41817;SDS011;27493;51.730;5.294;2023-02-22T03:42:42;54.80;;;22.37;;
41817;SDS011;27493;51.730;5.294;2023-02-22T03:45:09;62.03;;;22.07;;
41817;SDS011;27493;51.730;5.294;2023-02-22T03:47:36;50.53;;;21.17;;
41817;SDS011;27493;51.730;5.294;2023-02-22T03:50:06;53.53;;;20.90;;
41817;SDS011;27493;51.730;5.294;2023-02-22T03:52:33;50.77;;;21.10;;
41817;SDS011;27493;51.730;5.294;2023-02-22T03:54:59;53.40;;;20.77;;
41817;SDS011;27493;51.730;5.294;2023-02-22T03:57:28;59.30;;;21.13;;
41817;SDS011;27493;51.730;5.294;2023-02-22T03:59:56;55.63;;;21.80;;
41817;SDS011;27493;51.730;5.294;2023-02-22T04:02:21;58.90;;;22.30;;
41817;SDS011;27493;51.730;5.294;2023-02-22T04:04:47;58.53;;;22.17;;
41817;SDS011;27493;51.730;5.294;2023-02-22T04:07:13;74.07;;;23.20;;
41817;SDS011;27493;51.730;5.294;2023-02-22T04:09:38;62.10;;;21.77;;
41817;SDS011;27493;51.730;5.294;2023-02-22T04:12:03;69.37;;;22.37;;
41817;SDS011;27493;51.730;5.294;2023-02-22T04:14:28;59.63;;;22.70;;
41817;SDS011;27493;51.730;5.294;2023-02-22T04:16:53;74.37;;;22.53;;
41817;SDS011;27493;51.730;5.294;2023-02-22T04:19:19;102.53;;;20.93;;
41817;SDS011;27493;51.730;5.294;2023-02-22T04:21:44;89.63;;;22.47;;
41817;SDS011;27493;51.730;5.294;2023-02-22T04:24:09;95.87;;;23.13;;
41817;SDS011;27493;51.730;5.294;2023-02-22T04:26:35;120.83;;;24.00;;
41817;SDS011;27493;51.730;5.294;2023-02-22T04:29:00;92.03;;;22.17;;
41817;SDS011;27493;51.730;5.294;2023-02-22T04:31:26;84.87;;;22.07;;
41817;SDS011;27493;51.730;5.294;2023-02-22T04:33:51;72.40;;;22.57;;
41817;SDS011;27493;51.730;5.294;2023-02-22T04:36:16;65.30;;;21.83;;
41817;SDS011;27493;51.730;5.294;2023-02-22T04:38:42;92.30;;;22.10;;
41817;SDS011;27493;51.730;5.294;2023-02-22T04:41:07;78.83;;;20.93;;
41817;SDS011;27493;51.730;5.294;2023-02-22T04:43:32;66.73;;;22.37;;
41817;SDS011;27493;51.730;5.294;2023-02-22T04:45:58;101.60;;;25.13;;
41817;SDS011;27493;51.730;5.294;2023-02-22T04:48:23;66.10;;;21.30;;
41817;SDS011;27493;51.730;5.294;2023-02-22T04:50:48;87.00;;;22.27;;
41817;SDS011;27493;51.730;5.294;2023-02-22T04:53:15;77.43;;;22.47;;
41817;SDS011;27493;51.730;5.294;2023-02-22T04:55:40;111.67;;;24.77;;
41817;SDS011;27493;51.730;5.294;2023-02-22T04:58:05;82.07;;;22.57;;
41817;SDS011;27493;51.730;5.294;2023-02-22T05:00:30;102.03;;;25.43;;
41817;SDS011;27493;51.730;5.294;2023-02-22T05:02:56;83.93;;;23.73;;
41817;SDS011;27493;51.730;5.294;2023-02-22T05:05:21;96.90;;;25.40;;
41817;SDS011;27493;51.730;5.294;2023-02-22T05:07:47;89.43;;;25.07;;
41817;SDS011;27493;51.730;5.294;2023-02-22T05:10:13;140.67;;;27.30;;
41817;SDS011;27493;51.730;5.294;2023-02-22T05:12:38;94.27;;;24.47;;
41817;SDS011;27493;51.730;5.294;2023-02-22T05:15:04;82.27;;;25.53;;
41817;SDS011;27493;51.730;5.294;2023-02-22T05:17:29;106.80;;;26.97;;
41817;SDS011;27493;51.730;5.294;2023-02-22T05:19:55;84.40;;;25.33;;
41817;SDS011;27493;51.730;5.294;2023-02-22T05:22:20;87.70;;;26.27;;
41817;SDS011;27493;51.730;5.294;2023-02-22T05:24:45;98.50;;;26.40;;
41817;SDS011;27493;51.730;5.294;2023-02-22T05:27:10;73.80;;;25.17;;
41817;SDS011;27493;51.730;5.294;2023-02-22T05:29:35;82.30;;;25.70;;
41817;SDS011;27493;51.730;5.294;2023-02-22T05:32:02;106.97;;;24.30;;
41817;SDS011;27493;51.730;5.294;2023-02-22T05:34:27;82.77;;;24.70;;
41817;SDS011;27493;51.730;5.294;2023-02-22T05:36:53;69.23;;;22.73;;
41817;SDS011;27493;51.730;5.294;2023-02-22T05:39:18;78.53;;;23.00;;
41817;SDS011;27493;51.730;5.294;2023-02-22T05:41:43;78.27;;;24.43;;
41817;SDS011;27493;51.730;5.294;2023-02-22T05:44:08;70.97;;;22.73;;
41817;SDS011;27493;51.730;5.294;2023-02-22T05:46:33;67.77;;;23.13;;
41817;SDS011;27493;51.730;5.294;2023-02-22T05:48:59;80.23;;;22.53;;
41817;SDS011;27493;51.730;5.294;2023-02-22T05:51:24;104.23;;;22.90;;
41817;SDS011;27493;51.730;5.294;2023-02-22T05:53:49;82.40;;;21.93;;
41817;SDS011;27493;51.730;5.294;2023-02-22T05:56:19;66.10;;;20.47;;
41817;SDS011;27493;51.730;5.294;2023-02-22T05:58:45;67.60;;;21.50;;
41817;SDS011;27493;51.730;5.294;2023-02-22T06:01:10;59.03;;;20.67;;
41817;SDS011;27493;51.730;5.294;2023-02-22T06:03:36;60.13;;;20.23;;
41817;SDS011;27493;51.730;5.294;2023-02-22T06:06:01;61.23;;;20.50;;
41817;SDS011;27493;51.730;5.294;2023-02-22T06:08:27;54.70;;;19.00;;
41817;SDS011;27493;51.730;5.294;2023-02-22T06:10:52;62.13;;;20.10;;
41817;SDS011;27493;51.730;5.294;2023-02-22T06:13:17;51.27;;;18.87;;
41817;SDS011;27493;51.730;5.294;2023-02-22T06:15:42;55.10;;;18.53;;
41817;SDS011;27493;51.730;5.294;2023-02-22T06:18:07;47.03;;;18.67;;
41817;SDS011;27493;51.730;5.294;2023-02-22T06:20:33;49.53;;;18.77;;
41817;SDS011;27493;51.730;5.294;2023-02-22T06:22:59;49.97;;;18.37;;
41817;SDS011;27493;51.730;5.294;2023-02-22T06:25:26;47.97;;;19.40;;
41817;SDS011;27493;51.730;5.294;2023-02-22T06:27:51;44.90;;;18.17;;
41817;SDS011;27493;51.730;5.294;2023-02-22T06:30:17;46.37;;;18.17;;
41817;SDS011;27493;51.730;5.294;2023-02-22T06:32:43;50.33;;;18.67;;
41817;SDS011;27493;51.730;5.294;2023-02-22T06:35:08;49.97;;;19.30;;
41817;SDS011;27493;51.730;5.294;2023-02-22T06:37:34;46.27;;;18.20;;
41817;SDS011;27493;51.730;5.294;2023-02-22T06:39:59;49.30;;;18.70;;
41817;SDS011;27493;51.730;5.294;2023-02-22T06:42:24;48.43;;;19.00;;
41817;SDS011;27493;51.730;5.294;2023-02-22T06:44:49;51.20;;;19.30;;
41817;SDS011;27493;51.730;5.294;2023-02-22T06:47:14;44.57;;;18.60;;
41817;SDS011;27493;51.730;5.294;2023-02-22T06:49:40;43.67;;;17.60;;
41817;SDS011;27493;51.730;5.294;2023-02-22T06:52:05;44.37;;;18.37;;
41817;SDS011;27493;51.730;5.294;2023-02-22T06:54:31;45.67;;;18.83;;
41817;SDS011;27493;51.730;5.294;2023-02-22T06:56:56;47.57;;;19.03;;
41817;SDS011;27493;51.730;5.294;2023-02-22T06:59:21;47.37;;;19.80;;
41817;SDS011;27493;51.730;5.294;2023-02-22T07:01:47;45.17;;;18.67;;
41817;SDS011;27493;51.730;5.294;2023-02-22T07:04:12;43.33;;;18.57;;
41817;SDS011;27493;51.730;5.294;2023-02-22T07:06:38;46.37;;;18.27;;
41817;SDS011;27493;51.730;5.294;2023-02-22T07:09:03;51.60;;;19.57;;
41817;SDS011;27493;51.730;5.294;2023-02-22T07:11:28;49.20;;;18.80;;
41817;SDS011;27493;51.730;5.294;2023-02-22T07:13:53;49.83;;;19.27;;
41817;SDS011;27493;51.730;5.294;2023-02-22T07:16:19;52.93;;;19.90;;
41817;SDS011;27493;51.730;5.294;2023-02-22T07:18:44;54.00;;;21.03;;
41817;SDS011;27493;51.730;5.294;2023-02-22T07:21:10;64.20;;;21.20;;
41817;SDS011;27493;51.730;5.294;2023-02-22T07:23:35;54.43;;;20.07;;
41817;SDS011;27493;51.730;5.294;2023-02-22T07:26:02;52.70;;;20.40;;
41817;SDS011;27493;51.730;5.294;2023-02-22T07:28:27;52.03;;;20.67;;
41817;SDS011;27493;51.730;5.294;2023-02-22T07:30:52;60.17;;;21.37;;
41817;SDS011;27493;51.730;5.294;2023-02-22T07:33:17;52.63;;;19.90;;
41817;SDS011;27493;51.730;5.294;2023-02-22T07:35:44;50.63;;;20.40;;
41817;SDS011;27493;51.730;5.294;2023-02-22T07:38:10;50.93;;;20.73;;
41817;SDS011;27493;51.730;5.294;2023-02-22T07:40:36;63.23;;;21.63;;
41817;SDS011;27493;51.730;5.294;2023-02-22T07:43:12;53.43;;;21.47;;
41817;SDS011;27493;51.730;5.294;2023-02-22T07:45:38;51.77;;;21.37;;
41817;SDS011;27493;51.730;5.294;2023-02-22T07:48:03;53.70;;;20.63;;
41817;SDS011;27493;51.730;5.294;2023-02-22T07:50:29;56.83;;;21.47;;
41817;SDS011;27493;51.730;5.294;2023-02-22T07:52:55;53.43;;;22.10;;
41817;SDS011;27493;51.730;5.294;2023-02-22T07:55:22;55.37;;;21.90;;
41817;SDS011;27493;51.730;5.294;2023-02-22T07:57:48;50.20;;;21.10;;
41817;SDS011;27493;51.730;5.294;2023-02-22T08:00:14;52.77;;;20.07;;
41817;SDS011;27493;51.730;5.294;2023-02-22T08:02:40;48.60;;;20.40;;
41817;SDS011;27493;51.730;5.294;2023-02-22T08:05:06;51.37;;;21.10;;
41817;SDS011;27493;51.730;5.294;2023-02-22T08:07:32;49.93;;;21.73;;
41817;SDS011;27493;51.730;5.294;2023-02-22T08:09:57;49.20;;;19.40;;
41817;SDS011;27493;51.730;5.294;2023-02-22T08:12:22;52.83;;;21.20;;
41817;SDS011;27493;51.730;5.294;2023-02-22T08:14:48;51.00;;;21.00;;
41817;SDS011;27493;51.730;5.294;2023-02-22T08:17:13;52.03;;;21.93;;
41817;SDS011;27493;51.730;5.294;2023-02-22T08:19:38;53.70;;;22.00;;
41817;SDS011;27493;51.730;5.294;2023-02-22T08:22:03;52.97;;;21.10;;
41817;SDS011;27493;51.730;5.294;2023-02-22T08:24:28;54.47;;;21.53;;
41817;SDS011;27493;51.730;5.294;2023-02-22T08:26:54;58.63;;;21.93;;
41817;SDS011;27493;51.730;5.294;2023-02-22T08:29:19;49.67;;;21.63;;
41817;SDS011;27493;51.730;5.294;2023-02-22T08:31:48;52.17;;;20.30;;
41817;SDS011;27493;51.730;5.294;2023-02-22T08:34:14;52.57;;;21.87;;
41817;SDS011;27493;51.730;5.294;2023-02-22T08:36:40;50.47;;;21.73;;
41817;SDS011;27493;51.730;5.294;2023-02-22T08:39:05;56.30;;;22.60;;
41817;SDS011;27493;51.730;5.294;2023-02-22T08:41:31;52.80;;;21.43;;
41817;SDS011;27493;51.730;5.294;2023-02-22T08:43:56;54.33;;;22.97;;
41817;SDS011;27493;51.730;5.294;2023-02-22T08:46:25;53.57;;;22.97;;
41817;SDS011;27493;51.730;5.294;2023-02-22T08:48:50;52.70;;;22.57;;
41817;SDS011;27493;51.730;5.294;2023-02-22T08:51:16;51.97;;;21.40;;
41817;SDS011;27493;51.730;5.294;2023-02-22T08:53:41;47.90;;;20.83;;
41817;SDS011;27493;51.730;5.294;2023-02-22T08:56:06;52.40;;;21.30;;
41817;SDS011;27493;51.730;5.294;2023-02-22T08:58:31;49.37;;;22.03;;
41817;SDS011;27493;51.730;5.294;2023-02-22T09:00:56;47.70;;;20.77;;
41817;SDS011;27493;51.730;5.294;2023-02-22T09:03:22;46.57;;;20.40;;
41817;SDS011;27493;51.730;5.294;2023-02-22T09:05:47;45.43;;;21.63;;
41817;SDS011;27493;51.730;5.294;2023-02-22T09:08:14;48.40;;;20.40;;
41817;SDS011;27493;51.730;5.294;2023-02-22T09:10:39;45.70;;;21.30;;
41817;SDS011;27493;51.730;5.294;2023-02-22T09:13:04;47.87;;;21.37;;
41817;SDS011;27493;51.730;5.294;2023-02-22T09:15:30;43.63;;;19.23;;
41817;SDS011;27493;51.730;5.294;2023-02-22T09:17:56;44.77;;;20.53;;
41817;SDS011;27493;51.730;5.294;2023-02-22T09:20:22;44.13;;;21.00;;
41817;SDS011;27493;51.730;5.294;2023-02-22T09:22:48;45.10;;;21.30;;
41817;SDS011;27493;51.730;5.294;2023-02-22T09:25:13;44.47;;;19.97;;
41817;SDS011;27493;51.730;5.294;2023-02-22T09:27:38;44.90;;;20.80;;
41817;SDS011;27493;51.730;5.294;2023-02-22T09:30:04;42.73;;;20.57;;
41817;SDS011;27493;51.730;5.294;2023-02-22T09:32:29;39.43;;;20.37;;
41817;SDS011;27493;51.730;5.294;2023-02-22T09:34:54;40.10;;;20.13;;
41817;SDS011;27493;51.730;5.294;2023-02-22T09:37:20;39.03;;;19.70;;
41817;SDS011;27493;51.730;5.294;2023-02-22T09:39:45;36.43;;;18.67;;
41817;SDS011;27493;51.730;5.294;2023-02-22T09:42:15;42.80;;;19.73;;
41817;SDS011;27493;51.730;5.294;2023-02-22T09:47:17;39.20;;;19.00;;
41817;SDS011;27493;51.730;5.294;2023-02-22T09:49:46;40.87;;;19.17;;
41817;SDS011;27493;51.730;5.294;2023-02-22T09:52:17;38.87;;;19.07;;
41817;SDS011;27493;51.730;5.294;2023-02-22T09:54:46;34.10;;;18.20;;
41817;SDS011;27493;51.730;5.294;2023-02-22T09:57:17;38.67;;;19.90;;
41817;SDS011;27493;51.730;5.294;2023-02-22T09:59:52;37.80;;;19.37;;
41817;SDS011;27493;51.730;5.294;2023-02-22T10:02:34;37.97;;;19.93;;
41817;SDS011;27493;51.730;5.294;2023-02-22T10:05:05;36.17;;;18.23;;
41817;SDS011;27493;51.730;5.294;2023-02-22T10:07:34;37.33;;;18.43;;
41817;SDS011;27493;51.730;5.294;2023-02-22T10:10:01;34.43;;;18.87;;
41817;SDS011;27493;51.730;5.294;2023-02-22T10:25:09;34.37;;;17.83;;
41817;SDS011;27493;51.730;5.294;2023-02-22T10:30:28;31.97;;;17.60;;
41817;SDS011;27493;51.730;5.294;2023-02-22T10:35:29;33.60;;;18.40;;
41817;SDS011;27493;51.730;5.294;2023-02-22T10:37:58;31.83;;;17.63;;
41817;SDS011;27493;51.730;5.294;2023-02-22T10:40:25;30.23;;;16.60;;
41817;SDS011;27493;51.730;5.294;2023-02-22T10:42:56;31.07;;;16.93;;
41817;SDS011;27493;51.730;5.294;2023-02-22T10:45:24;30.93;;;16.77;;
41817;SDS011;27493;51.730;5.294;2023-02-22T10:47:50;28.93;;;15.57;;
41817;SDS011;27493;51.730;5.294;2023-02-22T10:50:18;30.23;;;16.60;;
41817;SDS011;27493;51.730;5.294;2023-02-22T10:52:44;31.57;;;17.63;;
41817;SDS011;27493;51.730;5.294;2023-02-22T10:55:11;27.33;;;15.40;;
41817;SDS011;27493;51.730;5.294;2023-02-22T10:57:37;29.83;;;15.77;;
41817;SDS011;27493;51.730;5.294;2023-02-22T11:02:59;24.70;;;14.37;;
41817;SDS011;27493;51.730;5.294;2023-02-22T11:07:50;28.33;;;15.23;;
41817;SDS011;27493;51.730;5.294;2023-02-22T11:10:21;28.83;;;15.60;;
41817;SDS011;27493;51.730;5.294;2023-02-22T11:12:55;29.63;;;14.93;;
41817;SDS011;27493;51.730;5.294;2023-02-22T11:17:52;24.47;;;14.40;;
41817;SDS011;27493;51.730;5.294;2023-02-22T11:20:20;25.93;;;14.93;;
41817;SDS011;27493;51.730;5.294;2023-02-22T11:22:49;26.37;;;14.67;;
41817;SDS011;27493;51.730;5.294;2023-02-22T11:25:19;28.80;;;15.20;;
41817;SDS011;27493;51.730;5.294;2023-02-22T11:27:46;26.33;;;15.53;;
41817;SDS011;27493;51.730;5.294;2023-02-22T11:30:24;26.23;;;15.17;;
41817;SDS011;27493;51.730;5.294;2023-02-22T11:33:02;24.07;;;14.23;;
41817;SDS011;27493;51.730;5.294;2023-02-22T11:35:36;25.53;;;14.60;;
41817;SDS011;27493;51.730;5.294;2023-02-22T11:38:14;21.67;;;12.90;;
41817;SDS011;27493;51.730;5.294;2023-02-22T11:40:40;25.63;;;14.37;;
41817;SDS011;27493;51.730;5.294;2023-02-22T11:43:12;24.70;;;13.87;;
41817;SDS011;27493;51.730;5.294;2023-02-22T11:45:38;22.50;;;13.30;;
41817;SDS011;27493;51.730;5.294;2023-02-22T11:48:05;19.63;;;13.23;;
41817;SDS011;27493;51.730;5.294;2023-02-22T11:50:32;20.63;;;13.40;;
41817;SDS011;27493;51.730;5.294;2023-02-22T11:53:01;23.80;;;12.80;;
41817;SDS011;27493;51.730;5.294;2023-02-22T11:55:30;21.03;;;13.57;;
41817;SDS011;27493;51.730;5.294;2023-02-22T12:00:57;21.87;;;12.63;;
41817;SDS011;27493;51.730;5.294;2023-02-22T12:06:00;23.20;;;14.27;;
41817;SDS011;27493;51.730;5.294;2023-02-22T12:11:16;23.80;;;14.33;;
41817;SDS011;27493;51.730;5.294;2023-02-22T12:13:48;24.73;;;14.53;;
41817;SDS011;27493;51.730;5.294;2023-02-22T12:16:20;25.67;;;15.77;;
41817;SDS011;27493;51.730;5.294;2023-02-22T12:21:20;23.80;;;14.17;;
41817;SDS011;27493;51.730;5.294;2023-02-22T12:26:35;20.53;;;13.73;;
41817;SDS011;27493;51.730;5.294;2023-02-22T12:31:29;23.70;;;14.17;;
41817;SDS011;27493;51.730;5.294;2023-02-22T12:36:26;24.90;;;15.23;;
41817;SDS011;27493;51.730;5.294;2023-02-22T12:38:57;23.03;;;14.70;;
41817;SDS011;27493;51.730;5.294;2023-02-22T12:44:11;23.97;;;14.23;;
41817;SDS011;27493;51.730;5.294;2023-02-22T12:46:46;22.83;;;14.67;;
41817;SDS011;27493;51.730;5.294;2023-02-22T12:59:19;21.38;;;13.50;;
41817;SDS011;27493;51.730;5.294;2023-02-22T13:01:50;24.50;;;14.77;;
41817;SDS011;27493;51.730;5.294;2023-02-22T13:04:17;22.93;;;14.37;;
41817;SDS011;27493;51.730;5.294;2023-02-22T13:14:12;21.20;;;14.45;;
41817;SDS011;27493;51.730;5.294;2023-02-22T13:16:54;24.27;;;15.63;;
41817;SDS011;27493;51.730;5.294;2023-02-22T13:22:01;22.37;;;14.83;;
41817;SDS011;27493;51.730;5.294;2023-02-22T13:27:18;22.23;;;13.83;;
41817;SDS011;27493;51.730;5.294;2023-02-22T13:29:46;23.43;;;15.33;;
41817;SDS011;27493;51.730;5.294;2023-02-22T13:47:20;25.60;;;15.93;;
41817;SDS011;27493;51.730;5.294;2023-02-22T13:49:54;24.07;;;16.00;;
41817;SDS011;27493;51.730;5.294;2023-02-22T13:52:24;25.87;;;16.50;;
41817;SDS011;27493;51.730;5.294;2023-02-22T13:54:52;25.27;;;15.83;;
41817;SDS011;27493;51.730;5.294;2023-02-22T13:57:20;22.10;;;15.90;;
41817;SDS011;27493;51.730;5.294;2023-02-22T13:59:47;22.20;;;16.40;;
41817;SDS011;27493;51.730;5.294;2023-02-22T14:02:55;25.53;;;18.13;;
41817;SDS011;27493;51.730;5.294;2023-02-22T14:07:59;22.57;;;16.27;;
41817;SDS011;27493;51.730;5.294;2023-02-22T14:10:33;26.57;;;17.13;;
41817;SDS011;27493;51.730;5.294;2023-02-22T14:13:04;27.40;;;19.47;;
41817;SDS011;27493;51.730;5.294;2023-02-22T14:15:29;24.27;;;17.67;;
41817;SDS011;27493;51.730;5.294;2023-02-22T14:17:58;24.30;;;16.73;;
41817;SDS011;27493;51.730;5.294;2023-02-22T14:22:55;25.20;;;17.53;;
41817;SDS011;27493;51.730;5.294;2023-02-22T14:31:05;24.47;;;16.67;;
41817;SDS011;27493;51.730;5.294;2023-02-22T14:36:16;26.33;;;17.60;;
41817;SDS011;27493;51.730;5.294;2023-02-22T14:38:42;28.53;;;18.50;;
41817;SDS011;27493;51.730;5.294;2023-02-22T14:41:08;24.50;;;17.33;;
41817;SDS011;27493;51.730;5.294;2023-02-22T14:43:34;26.13;;;17.67;;
41817;SDS011;27493;51.730;5.294;2023-02-22T14:46:00;26.70;;;17.87;;
41817;SDS011;27493;51.730;5.294;2023-02-22T14:48:34;25.40;;;17.60;;
41817;SDS011;27493;51.730;5.294;2023-02-22T14:51:19;28.50;;;18.63;;
41817;SDS011;27493;51.730;5.294;2023-02-22T14:53:47;27.80;;;17.60;;
41817;SDS011;27493;51.730;5.294;2023-02-22T14:58:39;27.98;;;18.80;;
41817;SDS011;27493;51.730;5.294;2023-02-22T15:06:44;27.80;;;19.00;;
41817;SDS011;27493;51.730;5.294;2023-02-22T15:09:15;27.03;;;17.77;;
41817;SDS011;27493;51.730;5.294;2023-02-22T15:11:51;25.30;;;17.67;;
41817;SDS011;27493;51.730;5.294;2023-02-22T15:14:19;28.47;;;19.33;;
41817;SDS011;27493;51.730;5.294;2023-02-22T15:16:54;30.80;;;19.67;;
41817;SDS011;27493;51.730;5.294;2023-02-22T15:19:27;28.43;;;20.17;;
41817;SDS011;27493;51.730;5.294;2023-02-22T15:21:53;30.17;;;20.17;;
41817;SDS011;27493;51.730;5.294;2023-02-22T15:24:40;30.13;;;19.90;;
41817;SDS011;27493;51.730;5.294;2023-02-22T15:27:05;29.97;;;20.53;;
41817;SDS011;27493;51.730;5.294;2023-02-22T15:29:33;29.53;;;20.33;;
41817;SDS011;27493;51.730;5.294;2023-02-22T15:31:59;26.53;;;20.03;;
41817;SDS011;27493;51.730;5.294;2023-02-22T15:36:53;32.10;;;20.77;;
41817;SDS011;27493;51.730;5.294;2023-02-22T15:39:19;29.23;;;20.07;;
41817;SDS011;27493;51.730;5.294;2023-02-22T15:41:49;33.40;;;21.30;;
41817;SDS011;27493;51.730;5.294;2023-02-22T15:44:24;31.90;;;20.67;;
41817;SDS011;27493;51.730;5.294;2023-02-22T15:46:49;28.60;;;20.50;;
41817;SDS011;27493;51.730;5.294;2023-02-22T15:51:40;31.23;;;20.67;;
41817;SDS011;27493;51.730;5.294;2023-02-22T15:54:06;34.70;;;20.50;;
41817;SDS011;27493;51.730;5.294;2023-02-22T15:56:38;32.33;;;20.83;;
41817;SDS011;27493;51.730;5.294;2023-02-22T15:59:06;33.47;;;21.77;;
41817;SDS011;27493;51.730;5.294;2023-02-22T16:01:36;33.60;;;21.57;;
41817;SDS011;27493;51.730;5.294;2023-02-22T16:04:02;36.10;;;22.17;;
41817;SDS011;27493;51.730;5.294;2023-02-22T16:06:29;34.27;;;22.37;;
41817;SDS011;27493;51.730;5.294;2023-02-22T16:08:57;36.07;;;23.27;;
41817;SDS011;27493;51.730;5.294;2023-02-22T16:11:25;34.93;;;22.03;;
41817;SDS011;27493;51.730;5.294;2023-02-22T16:13:59;36.20;;;22.30;;
41817;SDS011;27493;51.730;5.294;2023-02-22T16:16:27;33.80;;;23.60;;
41817;SDS011;27493;51.730;5.294;2023-02-22T16:18:53;38.20;;;23.57;;
41817;SDS011;27493;51.730;5.294;2023-02-22T16:21:51;38.50;;;24.90;;
41817;SDS011;27493;51.730;5.294;2023-02-22T16:24:33;36.70;;;23.97;;
41817;SDS011;27493;51.730;5.294;2023-02-22T16:27:00;36.60;;;24.63;;
41817;SDS011;27493;51.730;5.294;2023-02-22T16:29:26;38.73;;;25.00;;
41817;SDS011;27493;51.730;5.294;2023-02-22T16:31:51;40.23;;;25.63;;
41817;SDS011;27493;51.730;5.294;2023-02-22T16:34:16;40.97;;;26.60;;
41817;SDS011;27493;51.730;5.294;2023-02-22T16:36:42;35.73;;;25.57;;
41817;SDS011;27493;51.730;5.294;2023-02-22T16:41:45;36.23;;;25.27;;
41817;SDS011;27493;51.730;5.294;2023-02-22T16:44:11;39.10;;;26.50;;
41817;SDS011;27493;51.730;5.294;2023-02-22T16:46:36;38.47;;;25.37;;
41817;SDS011;27493;51.730;5.294;2023-02-22T16:49:02;39.00;;;26.53;;